createdAt,value
2023-01-11T00:00:20.440Z,3.05
2023-01-11T00:03:05.330Z,2.87
2023-01-11T00:05:33.315Z,2.97
2023-01-11T00:08:00.101Z,2.91
2023-01-11T00:10:26.814Z,2.87
2023-01-11T00:12:54.320Z,2.96
2023-01-11T00:15:21.197Z,2.98
2023-01-11T00:17:47.874Z,2.65
2023-01-11T00:20:15.854Z,2.75
2023-01-11T00:22:43.918Z,2.82
2023-01-11T00:25:11.719Z,2.87
2023-01-11T00:27:38.538Z,2.83
2023-01-11T00:30:05.568Z,2.65
2023-01-11T00:32:33.594Z,2.59
2023-01-11T00:35:00.996Z,2.86
2023-01-11T00:37:27.825Z,2.90
2023-01-11T00:39:57.503Z,2.84
2023-01-11T00:42:25.455Z,2.62
2023-01-11T00:44:52.391Z,2.55
2023-01-11T00:47:20.389Z,2.62
2023-01-11T00:49:47.490Z,2.65
2023-01-11T00:52:14.222Z,2.62
2023-01-11T00:54:41.367Z,2.69
2023-01-11T00:57:09.427Z,2.48
2023-01-11T00:59:37.898Z,2.58
2023-01-11T01:02:04.623Z,2.67
2023-01-11T01:04:34.549Z,2.72
2023-01-11T01:07:01.252Z,2.66
2023-01-11T01:09:27.951Z,2.38
2023-01-11T01:11:54.725Z,2.46
2023-01-11T01:14:21.399Z,2.40
2023-01-11T01:16:51.122Z,2.33
2023-01-11T01:19:18.202Z,2.40
2023-01-11T01:21:44.970Z,2.84
2023-01-11T01:24:14.551Z,2.58
2023-01-11T01:26:41.463Z,2.28
2023-01-11T01:29:08.657Z,2.47
2023-01-11T01:31:35.432Z,2.35
2023-01-11T01:34:03.275Z,2.47
2023-01-11T01:36:29.960Z,2.74
2023-01-11T01:38:59.756Z,2.67
2023-01-11T01:41:27.021Z,2.31
2023-01-11T01:43:57.782Z,2.48
2023-01-11T01:46:27.628Z,2.71
2023-01-11T01:49:03.318Z,2.54
2023-01-11T01:51:55.948Z,2.55
2023-01-11T01:54:27.997Z,2.53
2023-01-11T01:56:59.574Z,2.31
2023-01-11T01:59:26.554Z,2.51
2023-01-11T02:01:53.622Z,2.35
2023-01-11T02:04:43.280Z,2.47
2023-01-11T02:07:20.886Z,2.39
2023-01-11T02:10:08.198Z,2.32
2023-01-11T02:12:52.583Z,2.47
2023-01-11T02:15:20.917Z,2.35
2023-01-11T02:17:47.678Z,2.23
2023-01-11T02:20:44.833Z,2.23
2023-01-11T02:23:46.654Z,2.53
2023-01-11T02:26:19.478Z,2.18
2023-01-11T02:29:09.681Z,2.26
2023-01-11T02:31:57.394Z,2.43
2023-01-11T02:34:40.174Z,2.37
2023-01-11T02:37:31.731Z,2.13
2023-01-11T02:40:13.465Z,2.24
2023-01-11T02:43:11.947Z,2.10
2023-01-11T02:45:52.935Z,2.09
2023-01-11T02:48:32.977Z,2.08
2023-01-11T02:51:16.913Z,2.17
2023-01-11T02:53:56.662Z,2.10
2023-01-11T02:56:25.656Z,2.08
2023-01-11T02:58:53.403Z,2.21
2023-01-11T03:01:21.642Z,2.05
2023-01-11T03:03:52.140Z,2.18
2023-01-11T03:06:24.079Z,2.12
2023-01-11T03:09:23.222Z,2.03
2023-01-11T03:12:22.876Z,2.12
2023-01-11T03:15:08.771Z,1.88
2023-01-11T03:17:53.025Z,2.12
2023-01-11T03:24:21.396Z,2.36
2023-01-11T03:27:26.403Z,2.05
2023-01-11T03:30:13.895Z,1.90
2023-01-11T03:32:59.363Z,1.99
2023-01-11T03:36:04.477Z,2.01
2023-01-11T03:38:36.469Z,2.20
2023-01-11T03:41:12.296Z,2.13
2023-01-11T03:43:42.070Z,1.94
2023-01-11T03:49:41.205Z,1.89
2023-01-11T03:52:09.448Z,1.85
2023-01-11T03:54:36.530Z,1.79
2023-01-11T03:57:13.302Z,1.75
2023-01-11T03:59:40.351Z,1.94
2023-01-11T04:02:26.106Z,1.82
2023-01-11T04:04:52.853Z,1.67
2023-01-11T04:07:22.694Z,1.98
2023-01-11T04:09:49.923Z,1.91
2023-01-11T04:12:19.561Z,1.87
2023-01-11T04:14:46.456Z,1.75
2023-01-11T04:17:13.152Z,2.00
2023-01-11T04:19:40.049Z,1.95
2023-01-11T04:22:06.928Z,2.03
2023-01-11T04:24:33.644Z,2.06
2023-01-11T04:27:01.396Z,2.24
2023-01-11T04:29:30.963Z,1.97
2023-01-11T04:31:57.664Z,1.80
2023-01-11T04:34:24.757Z,2.10
2023-01-11T04:36:52.437Z,2.02
2023-01-11T04:39:19.395Z,1.85
2023-01-11T04:41:47.413Z,1.86
2023-01-11T04:44:14.578Z,2.09
2023-01-11T04:46:42.772Z,2.09
2023-01-11T04:49:09.688Z,2.60
2023-01-11T04:51:36.830Z,2.60
2023-01-11T04:54:03.622Z,2.58
2023-01-11T04:56:30.504Z,2.32
2023-01-11T04:58:57.628Z,2.01
2023-01-11T05:01:24.951Z,2.00
2023-01-11T05:03:52.118Z,2.05
2023-01-11T05:06:18.869Z,1.68
2023-01-11T05:08:46.709Z,1.64
2023-01-11T05:11:13.406Z,1.91
2023-01-11T05:13:40.164Z,1.94
2023-01-11T05:16:27.397Z,2.02
2023-01-11T05:18:58.304Z,1.84
2023-01-11T05:21:26.352Z,1.87
2023-01-11T05:23:55.860Z,1.83
2023-01-11T05:26:24.018Z,1.86
2023-01-11T05:28:51.191Z,1.97
2023-01-11T05:31:18.286Z,2.04
2023-01-11T05:33:45.543Z,1.79
2023-01-11T05:36:15.157Z,1.86
2023-01-11T05:38:42.008Z,1.94
2023-01-11T05:41:09.588Z,1.86
2023-01-11T05:43:36.747Z,1.78
2023-01-11T05:46:03.981Z,1.78
2023-01-11T05:48:33.846Z,1.72
2023-01-11T05:51:01.580Z,1.42
2023-01-11T05:53:28.739Z,1.72
2023-01-11T05:55:56.496Z,1.64
2023-01-11T05:58:24.329Z,1.57
2023-01-11T06:00:53.366Z,1.97
2023-01-11T06:03:21.193Z,2.11
2023-01-11T06:05:49.934Z,1.97
2023-01-11T06:08:16.729Z,1.78
2023-01-11T06:10:43.529Z,1.83
2023-01-11T06:13:10.250Z,1.75
2023-01-11T06:15:36.986Z,1.70
2023-01-11T06:18:03.738Z,1.93
2023-01-11T06:20:32.498Z,2.14
2023-01-11T06:22:59.387Z,1.91
2023-01-11T06:25:27.111Z,1.92
2023-01-11T06:27:54.059Z,1.91
2023-01-11T06:30:22.320Z,1.84
2023-01-11T06:32:49.186Z,2.29
2023-01-11T06:35:15.975Z,2.34
2023-01-11T06:37:42.774Z,2.60
2023-01-11T06:40:10.477Z,2.11
2023-01-11T06:42:40.158Z,2.18
2023-01-11T06:45:07.760Z,2.68
2023-01-11T06:47:35.346Z,2.35
2023-01-11T06:50:03.777Z,2.12
2023-01-11T06:52:30.995Z,2.04
2023-01-11T06:54:57.750Z,2.56
2023-01-11T06:57:25.485Z,2.34
2023-01-11T06:59:52.239Z,2.21
2023-01-11T07:02:19.385Z,2.29
2023-01-11T07:04:48.950Z,4.31
2023-01-11T07:07:15.748Z,4.27
2023-01-11T07:09:43.487Z,3.18
2023-01-11T07:12:10.233Z,2.13
2023-01-11T07:14:38.316Z,2.85
2023-01-11T07:17:05.444Z,3.56
2023-01-11T07:19:32.141Z,8.48
2023-01-11T07:21:58.919Z,7.68
2023-01-11T07:24:25.646Z,2.85
2023-01-11T07:26:52.362Z,3.28
2023-01-11T07:29:19.940Z,8.74
2023-01-11T07:31:46.686Z,6.75
2023-01-11T07:34:13.637Z,4.58
2023-01-11T07:36:41.859Z,4.13
2023-01-11T07:39:08.661Z,3.58
2023-01-11T07:41:35.336Z,3.62
2023-01-11T07:44:02.561Z,3.18
2023-01-11T07:46:29.286Z,3.18
2023-01-11T07:48:56.198Z,3.27
2023-01-11T07:51:22.957Z,3.39
2023-01-11T07:53:50.088Z,3.80
2023-01-11T07:56:17.120Z,4.97
2023-01-11T07:58:44.154Z,2.83
2023-01-11T08:01:11.213Z,3.42
2023-01-11T08:03:41.028Z,2.60
2023-01-11T08:06:08.931Z,2.95
2023-01-11T08:08:35.652Z,2.56
2023-01-11T08:11:07.289Z,2.37
2023-01-11T08:13:34.271Z,2.40
2023-01-11T08:16:02.793Z,8.40
2023-01-11T08:18:32.436Z,6.83
2023-01-11T08:20:59.373Z,4.77
2023-01-11T08:23:26.118Z,3.95
2023-01-11T08:25:57.421Z,3.67
2023-01-11T08:28:27.536Z,2.58
2023-01-11T08:31:11.707Z,2.31
2023-01-11T08:33:40.364Z,2.16
2023-01-11T08:36:08.410Z,2.21
2023-01-11T08:38:35.093Z,2.47
2023-01-11T08:41:03.302Z,2.23
2023-01-11T08:43:29.994Z,2.20
2023-01-11T08:45:56.802Z,2.51
2023-01-11T08:48:23.642Z,2.44
2023-01-11T08:50:50.334Z,2.41
2023-01-11T08:53:19.813Z,2.29
2023-01-11T08:59:26.967Z,2.35
2023-01-11T09:01:53.744Z,2.41
2023-01-11T09:04:25.425Z,2.15
2023-01-11T09:07:01.835Z,2.38
2023-01-11T09:09:28.937Z,3.18
2023-01-11T09:11:56.108Z,3.81
2023-01-11T09:14:23.901Z,2.77
2023-01-11T09:16:53.822Z,3.88
2023-01-11T09:19:20.853Z,2.67
2023-01-11T09:21:47.648Z,3.03
2023-01-11T09:24:15.452Z,7.33
2023-01-11T09:26:42.287Z,6.53
2023-01-11T09:29:12.251Z,4.21
2023-01-11T09:31:39.214Z,3.37
2023-01-11T09:34:05.989Z,3.05
2023-01-11T09:36:35.550Z,2.66
2023-01-11T09:39:02.634Z,2.52
2023-01-11T09:42:12.744Z,2.45
2023-01-11T09:44:52.074Z,5.86
2023-01-11T09:47:40.226Z,4.14
2023-01-11T09:50:13.494Z,3.38
2023-01-11T09:52:43.054Z,7.30
2023-01-11T09:55:30.984Z,5.26
2023-01-11T09:58:08.217Z,3.17
2023-01-11T10:01:14.740Z,2.86
2023-01-11T10:04:14.607Z,2.78
2023-01-11T10:07:00.116Z,3.24
2023-01-11T10:18:26.285Z,2.24
2023-01-11T10:18:58.264Z,2.29
2023-01-11T10:21:30.277Z,2.14
2023-01-11T10:24:21.040Z,2.15
2023-01-11T10:27:06.490Z,1.74
2023-01-11T10:29:47.028Z,1.97
2023-01-11T10:32:18.869Z,1.96
2023-01-11T10:34:46.761Z,2.20
2023-01-11T10:37:18.461Z,2.92
2023-01-11T10:39:54.094Z,3.34
2023-01-11T10:42:58.931Z,2.16
2023-01-11T10:45:45.002Z,2.08
2023-01-11T10:48:21.592Z,2.35
2023-01-11T10:51:09.023Z,2.20
2023-01-11T10:54:09.428Z,2.10
2023-01-11T10:57:02.846Z,2.19
2023-01-11T10:59:52.316Z,2.15
2023-01-11T11:02:54.062Z,2.26
2023-01-11T11:05:47.897Z,2.07
2023-01-11T11:08:22.478Z,2.57
2023-01-11T11:11:07.844Z,2.45
2023-01-11T11:13:58.032Z,3.73
2023-01-11T11:16:27.169Z,3.60
2023-01-11T11:18:55.113Z,3.07
2023-01-11T11:21:40.810Z,2.55
2023-01-11T11:24:21.262Z,2.56
2023-01-11T11:26:58.781Z,2.61
2023-01-11T11:29:27.793Z,2.64
2023-01-11T11:31:55.522Z,2.48
2023-01-11T11:34:23.344Z,2.74
2023-01-11T11:36:50.561Z,2.82
2023-01-11T11:39:25.105Z,2.64
2023-01-11T11:42:16.201Z,2.89
2023-01-11T11:44:42.955Z,2.77
2023-01-11T11:47:14.978Z,2.87
2023-01-11T11:49:41.712Z,2.82
2023-01-11T11:52:15.240Z,3.41
2023-01-11T11:54:56.464Z,2.80
2023-01-11T11:57:28.503Z,2.92
2023-01-11T12:00:30.910Z,2.97
2023-01-11T12:03:07.450Z,3.10
2023-01-11T12:05:34.145Z,5.68
2023-01-11T12:08:03.497Z,4.62
2023-01-11T12:10:30.427Z,4.02
2023-01-11T12:12:58.645Z,3.72
2023-01-11T12:15:32.758Z,4.12
2023-01-11T12:18:29.666Z,3.70
2023-01-11T12:20:56.335Z,3.12
2023-01-11T12:23:24.263Z,3.24
2023-01-11T12:25:59.991Z,3.44
2023-01-11T12:28:50.174Z,3.35
2023-01-11T12:31:25.568Z,3.76
2023-01-11T12:34:19.540Z,4.00
2023-01-11T12:36:59.761Z,3.61
2023-01-11T12:39:44.724Z,3.84
2023-01-11T12:42:49.869Z,3.80
2023-01-11T12:45:17.436Z,3.63
2023-01-11T12:48:21.926Z,3.70
2023-01-11T12:51:20.734Z,3.79
2023-01-11T12:54:12.461Z,3.79
2023-01-11T12:57:14.442Z,3.65
2023-01-11T13:00:07.506Z,4.07
2023-01-11T13:03:01.180Z,3.90
2023-01-11T13:05:51.669Z,3.95
2023-01-11T13:08:25.769Z,4.00
2023-01-11T13:11:07.738Z,3.89
2023-01-11T13:13:59.541Z,3.90
2023-01-11T13:16:34.167Z,3.50
2023-01-11T13:19:16.845Z,3.59
2023-01-11T13:21:49.018Z,3.85
2023-01-11T13:24:28.774Z,3.90
2023-01-11T13:27:02.719Z,4.38
2023-01-11T13:29:31.980Z,4.24
2023-01-11T13:31:59.500Z,4.12
2023-01-11T13:34:41.304Z,4.13
2023-01-11T13:37:14.051Z,4.42
2023-01-11T13:39:47.997Z,4.46
2023-01-11T13:42:29.186Z,4.70
2023-01-11T13:45:12.848Z,5.06
2023-01-11T13:47:45.118Z,4.86
2023-01-11T13:50:16.125Z,4.82
2023-01-11T13:53:03.643Z,4.64
2023-01-11T13:55:31.099Z,4.64
2023-01-11T13:58:06.868Z,4.40
2023-01-11T14:00:57.243Z,4.27
2023-01-11T14:03:42.566Z,4.28
2023-01-11T14:06:56.643Z,5.30
2023-01-11T14:09:47.471Z,5.07
2023-01-11T14:13:04.637Z,4.84
2023-01-11T14:15:44.498Z,4.57
2023-01-11T14:18:47.621Z,5.43
2023-01-11T14:21:25.292Z,6.49
2023-01-11T14:23:53.433Z,5.18
2023-01-11T14:27:02.801Z,4.80
2023-01-11T14:30:11.489Z,4.78
2023-01-11T14:32:53.884Z,4.45
2023-01-11T14:36:19.202Z,4.68
2023-01-11T14:39:08.612Z,5.02
2023-01-11T14:42:06.150Z,5.84
2023-01-11T14:45:23.136Z,5.29
2023-01-11T14:47:59.657Z,5.29
2023-01-11T14:50:37.998Z,7.18
2023-01-11T14:53:04.974Z,5.45
2023-01-11T14:55:35.114Z,5.81
2023-01-11T14:58:01.792Z,5.45
2023-01-11T15:00:34.096Z,5.63
2023-01-11T15:03:00.827Z,5.91
2023-01-11T15:05:41.361Z,5.03
2023-01-11T15:08:13.888Z,5.38
2023-01-11T15:10:51.214Z,5.15
2023-01-11T15:13:31.153Z,5.00
2023-01-11T15:16:20.099Z,5.35
2023-01-11T15:18:46.910Z,4.69
2023-01-11T15:21:34.612Z,4.73
2023-01-11T15:24:01.760Z,8.31
2023-01-11T15:26:28.896Z,16.71
2023-01-11T15:28:56.671Z,11.69
2023-01-11T15:31:49.575Z,10.93
2023-01-11T15:34:32.157Z,8.26
2023-01-11T15:37:05.284Z,6.96
2023-01-11T15:39:32.285Z,5.36
2023-01-11T15:42:16.944Z,7.05
2023-01-11T15:45:12.310Z,7.45
2023-01-11T15:48:06.972Z,6.78
2023-01-11T15:51:00.312Z,6.26
2023-01-11T15:54:04.931Z,6.34
2023-01-11T15:56:43.187Z,5.56
2023-01-11T15:59:22.937Z,5.45
2023-01-11T16:02:05.753Z,5.68
2023-01-11T16:04:34.339Z,5.32
2023-01-11T16:07:12.915Z,5.57
2023-01-11T16:09:52.437Z,5.62
2023-01-11T16:12:38.310Z,5.72
2023-01-11T16:15:07.998Z,5.33
2023-01-11T16:17:34.701Z,4.95
2023-01-11T16:20:19.042Z,4.94
2023-01-11T16:22:48.437Z,4.31
2023-01-11T16:25:17.425Z,4.42
2023-01-11T16:27:44.147Z,5.39
2023-01-11T16:30:20.018Z,5.35
2023-01-11T16:32:46.727Z,12.96
2023-01-11T16:35:24.328Z,8.65
2023-01-11T16:37:58.407Z,6.08
2023-01-11T16:40:46.194Z,6.38
2023-01-11T16:43:21.210Z,5.97
2023-01-11T16:45:49.985Z,6.08
2023-01-11T16:48:20.491Z,6.05
2023-01-11T16:51:07.052Z,4.69
2023-01-11T16:53:40.438Z,4.83
2023-01-11T16:56:08.953Z,13.18
2023-01-11T16:58:36.897Z,5.18
2023-01-11T17:01:22.006Z,4.98
2023-01-11T17:03:50.161Z,11.88
2023-01-11T17:06:25.212Z,7.65
2023-01-11T17:08:53.149Z,5.86
2023-01-11T17:11:39.826Z,5.24
2023-01-11T17:14:35.182Z,5.49
2023-01-11T17:17:05.896Z,6.61
2023-01-11T17:19:34.620Z,11.65
2023-01-11T17:22:07.141Z,9.99
2023-01-11T17:24:41.222Z,10.69
2023-01-11T17:27:13.862Z,6.97
2023-01-11T17:29:42.777Z,6.24
2023-01-11T17:32:16.915Z,27.96
2023-01-11T17:34:43.668Z,7.20
2023-01-11T17:37:14.434Z,24.18
2023-01-11T17:39:43.229Z,7.36
2023-01-11T17:42:12.144Z,6.08
2023-01-11T17:44:39.106Z,5.55
2023-01-11T17:47:07.303Z,6.56
2023-01-11T17:49:34.803Z,5.76
2023-01-11T17:52:20.941Z,5.49
2023-01-11T17:54:51.853Z,5.63
2023-01-11T17:57:21.479Z,5.72
2023-01-11T17:59:48.690Z,5.49
2023-01-11T18:02:15.485Z,5.45
2023-01-11T18:04:42.530Z,5.81
2023-01-11T18:07:14.891Z,6.87
2023-01-11T18:09:50.796Z,7.62
2023-01-11T18:12:23.365Z,8.08
2023-01-11T18:15:05.873Z,8.95
2023-01-11T18:17:37.952Z,6.79
2023-01-11T18:20:37.581Z,8.10
2023-01-11T18:23:18.215Z,8.87
2023-01-11T18:25:48.836Z,8.49
2023-01-11T18:28:19.405Z,8.09
2023-01-11T18:30:50.032Z,8.37
2023-01-11T18:33:17.918Z,12.46
2023-01-11T18:35:46.485Z,12.16
2023-01-11T18:38:17.430Z,14.21
2023-01-11T18:40:44.575Z,9.29
2023-01-11T18:43:14.358Z,8.94
2023-01-11T18:45:41.251Z,9.74
2023-01-11T18:48:14.516Z,10.00
2023-01-11T18:50:42.084Z,9.46
2023-01-11T18:53:12.407Z,10.71
2023-01-11T18:55:43.137Z,12.79
2023-01-11T18:58:10.201Z,12.74
2023-01-11T19:00:37.991Z,15.33
2023-01-11T19:03:04.886Z,14.27
2023-01-11T19:05:31.956Z,15.12
2023-01-11T19:07:59.714Z,10.93
2023-01-11T19:10:26.398Z,10.93
2023-01-11T19:12:53.125Z,9.76
2023-01-11T19:15:20.790Z,9.93
2023-01-11T19:17:50.552Z,9.71
2023-01-11T19:20:17.764Z,9.72
2023-01-11T19:22:45.669Z,10.29
2023-01-11T19:25:20.990Z,10.05
2023-01-11T19:27:49.143Z,9.82
2023-01-11T19:30:16.377Z,9.99
2023-01-11T19:32:43.428Z,10.93
2023-01-11T19:35:10.152Z,9.44
2023-01-11T19:37:39.847Z,8.61
2023-01-11T19:40:07.237Z,10.42
2023-01-11T19:42:33.995Z,12.08
2023-01-11T19:45:00.729Z,9.99
2023-01-11T19:47:30.354Z,6.52
2023-01-11T19:49:57.515Z,6.93
2023-01-11T19:52:24.521Z,7.74
2023-01-11T19:54:51.193Z,10.77
2023-01-11T19:57:18.845Z,9.52
2023-01-11T19:59:46.078Z,8.77
2023-01-11T20:02:16.906Z,8.17
2023-01-11T20:04:43.666Z,8.30
2023-01-11T20:07:10.893Z,8.20
2023-01-11T20:09:38.547Z,10.04
2023-01-11T20:12:09.861Z,10.15
2023-01-11T20:14:39.639Z,12.78
2023-01-11T20:17:07.869Z,11.72
2023-01-11T20:19:36.036Z,11.52
2023-01-11T20:22:02.779Z,13.83
2023-01-11T20:24:32.766Z,11.56
2023-01-11T20:27:02.008Z,11.94
2023-01-11T20:29:28.752Z,12.96
2023-01-11T20:31:58.159Z,13.95
2023-01-11T20:34:31.604Z,14.66
2023-01-11T20:36:58.682Z,13.26
2023-01-11T20:39:26.894Z,13.16
2023-01-11T20:41:53.652Z,13.65
2023-01-11T20:44:25.124Z,14.21
2023-01-11T20:46:52.216Z,14.15
2023-01-11T20:49:19.065Z,16.60
2023-01-11T20:51:46.039Z,17.30
2023-01-11T20:54:15.651Z,17.35
2023-01-11T20:56:44.329Z,16.15
2023-01-11T21:01:39.657Z,15.39
2023-01-11T21:04:08.144Z,15.56
2023-01-11T21:06:39.251Z,15.95
2023-01-11T21:09:06.719Z,15.54
2023-01-11T21:11:33.520Z,15.46
2023-01-11T21:14:01.288Z,14.82
2023-01-11T21:16:31.063Z,14.81
2023-01-11T21:19:00.032Z,13.80
2023-01-11T21:21:30.810Z,12.97
2023-01-11T21:23:59.255Z,13.11
2023-01-11T21:26:26.541Z,12.46
2023-01-11T21:28:54.929Z,11.41
2023-01-11T21:31:21.845Z,11.11
2023-01-11T21:33:49.279Z,11.46
2023-01-11T21:36:21.329Z,11.12
2023-01-11T21:38:48.386Z,11.81
2023-01-11T21:41:17.262Z,11.20
2023-01-11T21:43:44.025Z,10.00
2023-01-11T21:46:11.146Z,9.58
2023-01-11T21:48:38.400Z,9.71
2023-01-11T21:51:07.638Z,9.73
2023-01-11T21:53:34.674Z,9.78
2023-01-11T21:56:21.213Z,10.01
2023-01-11T21:58:51.032Z,9.89
2023-01-11T22:01:18.003Z,10.09
2023-01-11T22:03:45.082Z,10.21
2023-01-11T22:06:11.840Z,10.09
2023-01-11T22:08:38.670Z,9.69
2023-01-11T22:11:05.988Z,9.61
2023-01-11T22:13:34.532Z,8.88
2023-01-11T22:16:02.339Z,8.89
2023-01-11T22:18:29.268Z,9.21
2023-01-11T22:20:56.400Z,8.97
2023-01-11T22:23:23.210Z,8.74
2023-01-11T22:25:49.960Z,8.48
2023-01-11T22:28:17.498Z,8.61
2023-01-11T22:30:44.584Z,7.97
2023-01-11T22:33:11.654Z,7.80
2023-01-11T22:35:38.679Z,7.75
2023-01-11T22:38:08.408Z,7.62
2023-01-11T22:40:35.439Z,7.24
2023-01-11T22:43:02.468Z,7.00
2023-01-11T22:45:29.500Z,6.93
2023-01-11T22:47:58.293Z,6.36
2023-01-11T22:50:25.677Z,6.44
2023-01-11T22:52:55.165Z,7.40
2023-01-11T22:55:22.315Z,6.90
2023-01-11T22:57:49.345Z,6.72
2023-01-11T23:00:17.338Z,6.49
2023-01-11T23:02:44.450Z,6.53
2023-01-11T23:05:12.527Z,6.92
2023-01-11T23:07:43.248Z,6.77
2023-01-11T23:10:10.066Z,6.42
2023-01-11T23:12:37.075Z,5.79
2023-01-11T23:15:04.642Z,5.58
2023-01-11T23:17:31.846Z,5.33
2023-01-11T23:19:59.036Z,4.76
2023-01-11T23:22:25.757Z,4.84
2023-01-11T23:24:52.779Z,4.45
2023-01-11T23:27:19.823Z,4.42
2023-01-11T23:29:46.926Z,4.01
2023-01-11T23:32:14.850Z,4.07
2023-01-11T23:34:41.601Z,4.35
2023-01-11T23:37:08.624Z,4.25
2023-01-11T23:39:35.589Z,4.46
2023-01-11T23:42:02.612Z,4.34
2023-01-11T23:44:31.989Z,4.08
2023-01-11T23:47:01.657Z,3.95
2023-01-11T23:49:28.798Z,3.99
2023-01-11T23:51:58.277Z,3.80
2023-01-11T23:54:32.658Z,3.95
2023-01-11T23:56:59.684Z,3.58
2023-01-11T23:59:26.460Z,3.84
